Time;durP1;ratioP1;P1;durP2;ratioP2;P2;SDS_P1;SDS_P2;PMS_P1;PMS_P2;Temp;Humidity;BMP_temperature;BMP_pressure;BME280_temperature;BME280_humidity;BME280_pressure;Samples;Min_cycle;Max_cycle;Signal;HPM_P1;HPM_P2
2022/11/10 00:01:08;;;;;;;13.90;5.22;;;25.20;99.90;;;;;;5034272;28;20053;-65
2022/11/10 00:03:36;;;;;;;12.38;6.32;;;25.30;99.90;;;;;;5034624;28;20030;-64
2022/11/10 00:06:04;;;;;;;19.25;7.82;;;25.20;99.90;;;;;;5033957;28;20026;-64
2022/11/10 00:08:31;;;;;;;16.77;7.22;;;25.30;99.90;;;;;;5033730;28;20049;-64
2022/11/10 00:10:57;;;;;;;20.70;6.85;;;25.30;99.90;;;;;;5033535;28;20435;-64
2022/11/10 00:13:29;;;;;;;21.95;12.07;;;25.30;99.90;;;;;;5025421;28;20054;-65
2022/11/10 00:18:47;;;;;;;19.80;9.87;;;25.30;99.90;;;;;;5016495;28;20017;-65
2022/11/10 00:21:16;;;;;;;23.85;10.15;;;25.40;99.90;;;;;;5013691;28;20475;-64
2022/11/10 00:23:42;;;;;;;23.70;10.95;;;25.40;99.90;;;;;;5013803;28;20057;-65
2022/11/10 00:26:14;;;;;;;25.23;12.43;;;25.50;99.90;;;;;;5016078;28;20061;-65
2022/11/10 00:28:41;;;;;;;29.80;13.43;;;25.50;99.90;;;;;;5030776;28;20042;-65
2022/11/10 00:31:08;;;;;;;32.88;17.33;;;25.50;99.90;;;;;;5022716;28;20065;-65
2022/11/10 00:33:39;;;;;;;35.90;17.02;;;25.50;99.90;;;;;;5021545;28;20414;-65
2022/11/10 00:36:06;;;;;;;38.78;16.60;;;25.50;99.90;;;;;;5025851;28;20369;-64
2022/11/10 00:38:32;;;;;;;34.70;16.88;;;25.50;99.90;;;;;;5032088;28;20025;-65
2022/11/10 00:41:00;;;;;;;43.53;17.25;;;25.50;99.90;;;;;;5032639;28;20068;-65
2022/11/10 00:43:27;;;;;;;32.15;16.70;;;25.50;99.90;;;;;;5033124;28;20104;-65
2022/11/10 00:45:54;;;;;;;40.60;18.50;;;25.50;99.90;;;;;;5033177;28;20028;-64
2022/11/10 00:48:21;;;;;;;34.58;17.60;;;25.60;99.90;;;;;;5033252;28;20462;-65
2022/11/10 00:50:48;;;;;;;32.72;15.52;;;25.60;99.90;;;;;;5032720;28;20037;-65
2022/11/10 00:53:14;;;;;;;40.75;17.27;;;25.60;99.90;;;;;;5033184;28;20018;-65
2022/11/10 00:55:41;;;;;;;32.65;17.75;;;25.60;99.90;;;;;;5033276;28;20033;-65
2022/11/10 00:58:08;;;;;;;35.28;17.58;;;25.80;99.90;;;;;;5019020;28;20116;-65
2022/11/10 01:00:34;;;;;;;32.28;15.93;;;25.80;99.90;;;;;;5021760;28;20034;-65
2022/11/10 01:03:01;;;;;;;33.60;16.92;;;25.90;99.90;;;;;;5022639;28;20414;-65
2022/11/10 01:05:28;;;;;;;38.33;15.63;;;26.00;99.90;;;;;;5018306;28;20531;-65
2022/11/10 01:07:58;;;;;;;32.80;15.70;;;25.90;99.90;;;;;;5016795;28;20118;-65
2022/11/10 01:10:25;;;;;;;32.28;15.85;;;26.00;99.90;;;;;;5013103;28;20109;-65
2022/11/10 01:12:52;;;;;;;35.58;17.83;;;26.00;99.90;;;;;;5013034;28;20126;-63
2022/11/10 01:15:19;;;;;;;36.42;18.60;;;26.00;99.90;;;;;;5013299;28;20075;-64
2022/11/10 01:17:46;;;;;;;33.35;17.83;;;26.00;99.90;;;;;;5013357;28;20048;-65
2022/11/10 01:20:12;;;;;;;28.35;14.25;;;26.00;99.90;;;;;;5022736;28;20044;-65
2022/11/10 01:22:39;;;;;;;34.80;17.83;;;26.00;99.90;;;;;;5014729;28;20434;-65
2022/11/10 01:25:06;;;;;;;28.38;13.93;;;26.00;99.90;;;;;;5028822;28;20110;-65
2022/11/10 01:27:33;;;;;;;31.55;16.08;;;26.10;99.90;;;;;;5033361;28;20490;-65
2022/11/10 01:30:00;;;;;;;32.88;16.65;;;26.10;99.90;;;;;;5017543;28;20491;-63
2022/11/10 01:32:26;;;;;;;32.70;15.70;;;26.10;99.90;;;;;;5016557;28;20023;-65
2022/11/10 01:34:53;;;;;;;48.03;19.70;;;26.10;99.90;;;;;;5013566;28;20109;-65
2022/11/10 01:37:19;;;;;;;36.08;16.45;;;26.10;99.90;;;;;;5013790;28;20034;-65
2022/11/10 01:39:46;;;;;;;26.48;13.98;;;26.20;99.90;;;;;;5020808;28;20030;-64
2022/11/10 01:42:12;;;;;;;37.00;16.95;;;26.30;99.90;;;;;;5020768;28;20067;-63
2022/11/10 01:44:40;;;;;;;42.08;18.05;;;26.30;99.90;;;;;;5020322;28;20034;-65
2022/11/10 01:47:07;;;;;;;29.38;15.05;;;26.30;99.90;;;;;;5033252;28;20022;-65
2022/11/10 01:49:35;;;;;;;28.83;14.38;;;26.30;99.90;;;;;;5032715;28;20493;-64
2022/11/10 01:52:06;;;;;;;30.77;15.13;;;26.40;99.90;;;;;;5033829;28;20462;-66
2022/11/10 01:54:44;;;;;;;27.83;15.80;;;26.50;99.90;;;;;;5023002;28;20133;-65
2022/11/10 01:57:12;;;;;;;29.80;14.88;;;26.50;99.90;;;;;;5023088;28;20501;-65
2022/11/10 01:59:43;;;;;;;29.48;13.82;;;26.50;99.90;;;;;;5032350;28;20033;-65
2022/11/10 02:02:20;;;;;;;30.35;13.88;;;26.50;99.90;;;;;;5017842;28;20169;-63
2022/11/10 02:04:50;;;;;;;27.33;12.95;;;26.50;99.90;;;;;;5018994;28;20026;-66
2022/11/10 02:07:18;;;;;;;21.35;11.38;;;26.60;99.90;;;;;;5035629;28;20049;-65
2022/11/10 02:09:45;;;;;;;23.88;11.80;;;26.70;99.90;;;;;;5035644;28;20022;-65
2022/11/10 02:12:14;;;;;;;22.13;10.02;;;26.70;99.90;;;;;;5017611;28;20029;-65
2022/11/10 02:14:42;;;;;;;20.15;11.10;;;26.80;99.90;;;;;;5015856;28;20018;-65
2022/11/10 02:17:09;;;;;;;14.63;8.52;;;26.90;99.90;;;;;;5016353;28;20044;-65
2022/11/10 02:19:44;;;;;;;25.13;9.63;;;26.90;99.90;;;;;;5035659;28;20428;-65
2022/11/10 02:22:11;;;;;;;20.98;9.52;;;26.90;99.90;;;;;;5018030;28;20029;-64
2022/11/10 02:24:37;;;;;;;18.83;9.50;;;27.00;99.90;;;;;;5023066;28;20025;-65
2022/11/10 02:27:04;;;;;;;18.25;9.70;;;27.10;99.90;;;;;;5028945;28;20084;-65
2022/11/10 02:29:31;;;;;;;16.88;9.73;;;27.10;99.90;;;;;;5015823;28;20022;-64
2022/11/10 02:31:57;;;;;;;22.65;9.30;;;27.10;99.90;;;;;;5016041;28;20433;-65
2022/11/10 02:34:24;;;;;;;16.88;9.40;;;27.10;99.90;;;;;;5035220;28;20025;-65
2022/11/10 02:36:50;;;;;;;17.20;9.13;;;27.20;99.90;;;;;;5035118;28;20033;-63
2022/11/10 02:39:17;;;;;;;18.17;9.18;;;27.30;99.90;;;;;;5033887;28;20034;-64
2022/11/10 02:41:43;;;;;;;16.75;9.73;;;27.30;99.90;;;;;;5035239;28;20041;-65
2022/11/10 02:44:10;;;;;;;18.67;9.38;;;27.40;99.90;;;;;;5035213;28;20437;-65
2022/11/10 02:46:36;;;;;;;18.08;8.93;;;27.50;99.90;;;;;;5027717;28;20030;-65
2022/11/10 02:49:03;;;;;;;16.92;9.70;;;27.60;99.90;;;;;;5034914;28;20022;-65
2022/11/10 02:51:29;;;;;;;15.05;9.48;;;27.50;99.90;;;;;;5035088;28;20025;-65
2022/11/10 02:53:56;;;;;;;14.77;9.38;;;27.60;99.90;;;;;;5035094;28;20475;-63
2022/11/10 02:56:22;;;;;;;19.63;10.23;;;27.70;99.90;;;;;;5027371;28;20502;-64
2022/11/10 02:58:49;;;;;;;17.42;9.38;;;27.70;99.90;;;;;;5015218;28;20055;-64
2022/11/10 03:01:15;;;;;;;17.50;9.52;;;27.70;99.90;;;;;;5014785;28;20037;-64
2022/11/10 03:03:42;;;;;;;15.77;10.30;;;27.80;99.90;;;;;;5014455;28;20036;-65
2022/11/10 03:06:08;;;;;;;14.43;9.65;;;27.80;99.90;;;;;;5014893;28;20115;-64
2022/11/10 03:08:38;;;;;;;19.38;10.32;;;27.80;99.90;;;;;;5014734;28;20032;-63
2022/11/10 03:11:04;;;;;;;18.63;10.02;;;27.90;99.90;;;;;;5014904;28;20025;-65
2022/11/10 03:13:31;;;;;;;19.50;10.75;;;27.90;99.90;;;;;;5015014;28;20478;-65
2022/11/10 03:15:58;;;;;;;17.80;9.57;;;28.00;99.90;;;;;;5014608;28;20030;-65
2022/11/10 03:18:24;;;;;;;22.45;9.93;;;28.10;99.90;;;;;;5014948;28;20021;-65
2022/11/10 03:20:51;;;;;;;19.05;10.35;;;28.10;99.90;;;;;;5014592;28;20029;-65
2022/11/10 03:23:18;;;;;;;16.60;10.38;;;28.10;99.90;;;;;;5014466;28;20026;-66
2022/11/10 03:25:45;;;;;;;18.45;11.20;;;28.10;99.90;;;;;;5014482;28;20026;-65
2022/11/10 03:28:12;;;;;;;24.88;12.80;;;28.20;99.90;;;;;;5017030;28;20062;-63
2022/11/10 03:30:39;;;;;;;20.30;12.63;;;28.30;99.90;;;;;;5030363;28;20030;-63
2022/11/10 03:33:05;;;;;;;23.38;12.30;;;28.30;99.90;;;;;;5033021;28;20018;-65
2022/11/10 03:35:32;;;;;;;17.10;12.65;;;28.30;99.90;;;;;;5033052;28;20222;-64
2022/11/10 03:37:59;;;;;;;20.88;12.77;;;28.40;99.90;;;;;;5030273;28;20457;-63
2022/11/10 03:40:26;;;;;;;22.40;13.23;;;28.40;99.90;;;;;;5030048;28;20117;-65
2022/11/10 03:42:52;;;;;;;19.65;12.23;;;28.50;99.90;;;;;;5032779;28;20536;-63
2022/11/10 03:45:19;;;;;;;23.90;12.25;;;28.60;99.90;;;;;;5029716;28;20060;-64
2022/11/10 03:47:47;;;;;;;22.45;13.13;;;28.70;99.90;;;;;;5032487;28;20041;-63
2022/11/10 03:50:14;;;;;;;19.90;13.90;;;28.80;99.90;;;;;;5032712;28;20018;-64
2022/11/10 03:52:43;;;;;;;24.65;14.50;;;28.90;99.90;;;;;;5032969;28;20092;-66
2022/11/10 03:55:13;;;;;;;22.52;14.75;;;28.80;99.90;;;;;;5033816;28;20068;-67
2022/11/10 03:57:40;;;;;;;21.52;13.60;;;28.90;99.90;;;;;;5033951;28;20060;-66
2022/11/10 04:00:08;;;;;;;21.58;14.50;;;28.80;99.90;;;;;;5033425;28;20033;-66
2022/11/10 04:02:35;;;;;;;32.60;15.57;;;28.90;99.90;;;;;;5033547;28;20040;-66
2022/11/10 04:10:24;;;;;;;28.42;20.67;;;29.10;99.90;;;;;;5027251;28;20029;-67
2022/11/10 04:15:45;;;;;;;31.17;21.77;;;29.20;99.90;;;;;;5021256;28;20034;-65
2022/11/10 04:18:23;;;;;;;31.73;15.23;;;29.30;99.90;;;;;;5029357;28;20366;-64
2022/11/10 04:20:55;;;;;;;24.13;12.77;;;29.30;99.90;;;;;;5029716;28;20112;-63
2022/11/10 04:23:34;;;;;;;22.83;13.98;;;29.40;99.90;;;;;;5024432;28;20386;-64
2022/11/10 04:28:53;;;;;;;20.98;13.20;;;29.50;99.90;;;;;;5026489;28;20029;-64
2022/11/10 04:31:21;;;;;;;17.05;13.35;;;29.50;99.90;;;;;;5030091;28;20497;-64
2022/11/10 04:33:49;;;;;;;20.67;12.55;;;29.50;99.90;;;;;;5031252;28;20032;-64
2022/11/10 04:36:18;;;;;;;25.88;15.68;;;29.50;99.90;;;;;;5030993;28;20021;-67
2022/11/10 04:38:46;;;;;;;26.83;15.85;;;29.50;99.90;;;;;;5028979;28;20137;-67
2022/11/10 04:41:13;;;;;;;25.50;15.65;;;29.50;99.90;;;;;;5030909;28;20037;-63
2022/11/10 04:43:40;;;;;;;23.52;16.20;;;29.70;99.90;;;;;;5031022;28;20022;-63
2022/11/10 04:46:18;;;;;;;25.25;16.55;;;29.70;99.90;;;;;;5030722;28;20017;-63
2022/11/10 04:48:45;;;;;;;28.00;17.08;;;29.80;99.90;;;;;;5030566;28;20015;-64
2022/11/10 04:51:12;;;;;;;26.50;15.70;;;29.80;99.90;;;;;;5030392;28;20425;-64
2022/11/10 04:53:38;;;;;;;54.00;35.78;;;29.90;99.90;;;;;;5026264;28;20474;-64
2022/11/10 04:56:05;;;;;;;50.30;36.75;;;29.90;99.90;;;;;;5027774;28;20030;-64
2022/11/10 04:58:32;;;;;;;23.75;15.45;;;29.90;99.90;;;;;;5030310;28;20121;-62
2022/11/10 05:00:58;;;;;;;25.83;15.13;;;29.90;99.90;;;;;;5030386;28;20025;-63
2022/11/10 05:03:27;;;;;;;18.77;12.07;;;29.90;99.90;;;;;;5029942;28;20474;-63
2022/11/10 05:05:54;;;;;;;19.88;12.60;;;29.90;99.90;;;;;;5030146;28;20097;-63
2022/11/10 05:08:20;;;;;;;14.07;10.00;;;29.90;99.90;;;;;;5029454;28;20032;-63
2022/11/10 05:10:47;;;;;;;13.48;9.00;;;30.00;99.90;;;;;;5012484;28;20030;-63
2022/11/10 05:13:13;;;;;;;12.93;7.78;;;30.00;99.90;;;;;;5027326;28;20052;-63
2022/11/10 05:15:41;;;;;;;12.35;6.40;;;30.10;99.90;;;;;;5026817;28;20025;-63
2022/11/10 05:18:07;;;;;;;8.23;5.88;;;30.30;99.90;;;;;;5028927;28;20022;-61
2022/11/10 05:20:34;;;;;;;11.85;7.32;;;30.40;99.90;;;;;;5027704;28;20037;-62
2022/11/10 05:25:47;;;;;;;10.63;6.65;;;30.30;99.90;;;;;;5031256;28;20033;-62
2022/11/10 05:28:15;;;;;;;9.98;7.30;;;30.30;99.90;;;;;;5030241;28;20052;-63
2022/11/10 05:30:43;;;;;;;12.38;7.00;;;30.30;99.90;;;;;;5030055;28;20029;-63
2022/11/10 05:33:10;;;;;;;9.93;6.22;;;30.30;99.90;;;;;;5030719;28;20026;-67
2022/11/10 05:35:37;;;;;;;6.20;5.55;;;30.40;99.90;;;;;;5030082;28;20054;-62
2022/11/10 05:38:04;;;;;;;6.05;4.78;;;30.50;99.90;;;;;;5035189;28;20500;-63
2022/11/10 05:40:31;;;;;;;12.27;5.90;;;30.50;99.90;;;;;;5029407;28;20104;-63
2022/11/10 05:42:58;;;;;;;8.48;5.20;;;30.50;99.90;;;;;;5011657;28;20434;-64
2022/11/10 05:45:27;;;;;;;8.07;5.07;;;30.50;99.90;;;;;;5032492;28;20028;-62
2022/11/10 05:47:55;;;;;;;10.50;6.22;;;30.60;99.90;;;;;;5031982;28;20053;-64
2022/11/10 05:50:23;;;;;;;9.10;6.68;;;30.50;99.90;;;;;;5028777;28;20100;-63
2022/11/10 05:52:52;;;;;;;7.53;5.78;;;30.60;99.90;;;;;;5030379;28;20390;-63
2022/11/10 05:55:22;;;;;;;8.20;7.00;;;30.60;99.90;;;;;;5031407;28;20087;-64
2022/11/10 05:57:50;;;;;;;10.00;6.07;;;30.50;99.90;;;;;;5032746;28;20036;-63
2022/11/10 06:00:20;;;;;;;8.23;5.88;;;30.70;99.90;;;;;;5034230;28;20030;-63
2022/11/10 06:02:58;;;;;;;8.85;5.20;;;30.70;99.90;;;;;;5027832;28;20025;-64
2022/11/10 06:05:25;;;;;;;9.68;5.72;;;30.80;99.90;;;;;;5030637;28;20026;-63
2022/11/10 06:07:52;;;;;;;10.10;5.82;;;30.80;99.90;;;;;;5033204;28;20041;-63
2022/11/10 06:10:18;;;;;;;8.80;6.32;;;30.80;99.90;;;;;;5029018;28;20028;-63
2022/11/10 06:12:45;;;;;;;13.32;5.78;;;30.90;99.90;;;;;;5030466;28;20474;-63
2022/11/10 06:15:12;;;;;;;9.18;5.35;;;30.80;99.90;;;;;;5032331;28;20033;-63
2022/11/10 06:17:39;;;;;;;9.20;5.93;;;30.70;99.90;;;;;;5031378;28;20025;-62
2022/11/10 06:20:06;;;;;;;8.75;5.88;;;30.80;99.90;;;;;;5032754;28;20029;-65
2022/11/10 06:22:33;;;;;;;10.50;6.15;;;30.80;99.90;;;;;;5033405;28;20037;-64
2022/11/10 06:24:59;;;;;;;9.38;6.45;;;30.90;99.90;;;;;;5029836;28;20027;-65
2022/11/10 06:27:26;;;;;;;10.52;6.43;;;30.90;99.90;;;;;;5030357;28;20083;-65
2022/11/10 06:29:52;;;;;;;9.98;5.90;;;31.00;99.90;;;;;;5029810;28;20111;-62
2022/11/10 06:32:19;;;;;;;14.75;5.78;;;31.10;99.90;;;;;;5031037;28;20417;-61
2022/11/10 06:34:45;;;;;;;11.65;5.75;;;31.10;99.90;;;;;;5032629;28;20021;-61
2022/11/10 06:37:12;;;;;;;7.10;5.22;;;31.10;99.90;;;;;;5032465;28;20522;-63
2022/11/10 06:39:38;;;;;;;17.73;6.25;;;31.20;99.90;;;;;;5030717;28;20417;-62
2022/11/10 06:42:05;;;;;;;7.75;5.20;;;31.20;99.90;;;;;;5029644;28;20030;-62
2022/11/10 06:44:31;;;;;;;8.10;5.38;;;31.20;99.90;;;;;;5025708;28;20036;-61
2022/11/10 06:46:58;;;;;;;9.25;4.90;;;31.30;99.90;;;;;;5028047;28;20471;-61
2022/11/10 06:49:25;;;;;;;8.90;4.65;;;31.30;99.90;;;;;;5032602;28;20017;-62
2022/11/10 06:51:51;;;;;;;9.90;4.60;;;31.30;99.90;;;;;;5030700;28;20029;-60
2022/11/10 06:54:18;;;;;;;11.48;5.30;;;31.20;99.90;;;;;;5030611;28;20456;-61
2022/11/10 06:56:44;;;;;;;11.63;6.00;;;31.40;99.90;;;;;;5032971;28;20371;-60
2022/11/10 06:59:11;;;;;;;11.60;6.50;;;31.40;99.90;;;;;;5032104;28;20033;-61
2022/11/10 07:01:37;;;;;;;7.93;6.07;;;31.50;99.90;;;;;;5032269;28;20025;-62
2022/11/10 07:04:04;;;;;;;7.40;5.75;;;31.50;99.90;;;;;;5032351;28;20021;-62
2022/11/10 07:06:31;;;;;;;7.07;4.72;;;31.50;99.90;;;;;;5031908;28;20053;-62
2022/11/10 07:08:57;;;;;;;7.82;5.53;;;31.50;99.90;;;;;;5031977;28;20386;-61
2022/11/10 07:11:23;;;;;;;7.93;5.15;;;31.50;99.90;;;;;;5029390;28;20100;-61
2022/11/10 07:13:50;;;;;;;10.20;5.90;;;31.60;99.90;;;;;;5029030;28;20504;-64
2022/11/10 07:16:16;;;;;;;10.27;6.60;;;31.60;99.90;;;;;;5032173;28;20014;-62
2022/11/10 07:18:43;;;;;;;15.50;6.53;;;31.60;99.90;;;;;;5029429;28;20018;-62
2022/11/10 07:21:09;;;;;;;11.77;6.45;;;31.70;99.90;;;;;;5031236;28;20024;-61
2022/11/10 07:23:36;;;;;;;12.13;6.55;;;31.70;99.90;;;;;;5031802;28;20070;-62
2022/11/10 07:26:02;;;;;;;9.05;6.65;;;31.80;99.90;;;;;;5032969;28;20115;-61
2022/11/10 07:28:29;;;;;;;8.73;5.57;;;31.70;99.90;;;;;;5026145;28;20029;-62
2022/11/10 07:30:56;;;;;;;11.23;6.30;;;31.70;99.90;;;;;;5024903;28;20486;-63
2022/11/10 07:33:22;;;;;;;12.50;7.47;;;31.60;99.90;;;;;;5027747;28;20025;-62
2022/11/10 07:35:54;;;;;;;14.57;6.32;;;31.50;99.90;;;;;;5027007;28;20104;-61
2022/11/10 07:38:21;;;;;;;13.35;6.80;;;31.50;99.90;;;;;;5027917;28;20022;-61
2022/11/10 07:40:52;;;;;;;9.48;6.15;;;31.50;99.90;;;;;;5029220;28;20034;-63
2022/11/10 07:43:20;;;;;;;10.48;5.93;;;31.50;99.90;;;;;;5031890;28;20033;-66
2022/11/10 07:45:48;;;;;;;15.63;6.30;;;31.50;99.90;;;;;;5032791;28;20440;-63
2022/11/10 07:48:14;;;;;;;8.85;6.85;;;31.50;99.90;;;;;;5028451;28;20370;-66
2022/11/10 07:50:41;;;;;;;8.82;5.68;;;31.50;99.90;;;;;;5019600;28;20017;-63
2022/11/10 07:53:12;;;;;;;11.98;6.88;;;31.50;99.90;;;;;;5032687;28;20489;-62
2022/11/10 07:55:41;;;;;;;15.95;7.43;;;31.70;99.90;;;;;;5033394;28;20029;-63
2022/11/10 07:58:08;;;;;;;10.35;6.38;;;31.80;99.90;;;;;;5030157;28;20033;-61
2022/11/10 08:00:37;;;;;;;10.02;6.05;;;31.80;99.90;;;;;;5028411;28;20018;-63
2022/11/10 08:03:06;;;;;;;14.68;6.28;;;31.70;99.90;;;;;;5025456;28;20061;-63
2022/11/10 08:05:33;;;;;;;10.52;6.60;;;31.70;99.90;;;;;;5032982;28;20072;-65
2022/11/10 08:08:00;;;;;;;9.98;7.43;;;31.70;99.90;;;;;;5027553;28;20140;-65
2022/11/10 08:10:28;;;;;;;13.77;6.53;;;31.80;99.90;;;;;;5032034;28;20430;-65
2022/11/10 08:12:57;;;;;;;10.32;5.82;;;31.90;99.90;;;;;;5027308;28;20025;-65
2022/11/10 08:15:25;;;;;;;12.10;6.15;;;31.90;99.90;;;;;;5031688;28;20071;-65
2022/11/10 08:17:57;;;;;;;7.43;5.57;;;31.90;99.90;;;;;;5031493;28;20029;-65
2022/11/10 08:20:23;;;;;;;;;;;32.00;99.90;;;;;;5031203;28;20496;-66
2022/11/10 08:22:58;;;;;;;14.45;8.90;;;31.90;99.90;;;;;;5031922;28;19990;-66
2022/11/10 08:25:28;;;;;;;12.05;7.50;;;31.90;99.90;;;;;;5029501;28;20506;-66
2022/11/10 08:28:15;;;;;;;14.68;7.80;;;31.90;99.90;;;;;;5027769;28;20025;-65
2022/11/10 08:30:44;;;;;;;10.10;7.50;;;31.90;99.90;;;;;;5023047;28;20029;-68
2022/11/10 08:33:13;;;;;;;11.45;6.43;;;31.90;99.90;;;;;;5027819;28;20410;-65
2022/11/10 08:35:44;;;;;;;10.15;7.45;;;31.90;99.90;;;;;;5032390;28;20075;-64
2022/11/10 08:38:23;;;;;;;15.57;7.77;;;32.00;99.90;;;;;;5032053;28;20032;-64
2022/11/10 08:40:50;;;;;;;14.05;7.80;;;32.00;99.90;;;;;;5030716;28;20129;-64
2022/11/10 08:43:17;;;;;;;10.05;6.57;;;32.00;99.90;;;;;;5031678;28;20028;-64
2022/11/10 08:45:45;;;;;;;11.18;6.50;;;32.00;99.90;;;;;;5031734;28;20030;-65
2022/11/10 08:48:16;;;;;;;12.52;6.22;;;32.00;99.90;;;;;;5031333;28;20029;-67
2022/11/10 08:50:43;;;;;;;12.00;6.95;;;31.90;99.90;;;;;;5029290;28;20033;-66
2022/11/10 08:53:12;;;;;;;12.65;6.45;;;31.90;99.90;;;;;;5026681;28;20029;-66
2022/11/10 08:55:40;;;;;;;10.38;6.40;;;32.00;99.90;;;;;;5030547;28;20034;-64
2022/11/10 08:58:07;;;;;;;12.00;6.90;;;32.00;99.90;;;;;;5029902;28;20048;-65
2022/11/10 09:00:34;;;;;;;12.15;6.28;;;32.00;99.90;;;;;;5021251;28;20033;-66
2022/11/10 09:03:20;;;;;;;10.63;7.13;;;31.90;99.90;;;;;;5036686;28;20083;-65
2022/11/10 09:05:48;;;;;;;15.07;7.65;;;31.90;99.90;;;;;;5036668;28;20164;-66
2022/11/10 09:08:15;;;;;;;13.52;9.27;;;31.90;99.90;;;;;;5036965;28;20509;-66
2022/11/10 09:10:45;;;;;;;11.93;6.25;;;31.90;99.90;;;;;;5036707;28;20033;-67
2022/11/10 09:13:13;;;;;;;12.38;6.53;;;31.90;99.90;;;;;;5036369;28;20034;-65
2022/11/10 09:15:41;;;;;;;18.60;7.50;;;31.90;99.90;;;;;;5036806;28;20052;-66
2022/11/10 09:18:09;;;;;;;17.83;8.82;;;31.90;99.90;;;;;;5036931;28;20100;-65
2022/11/10 09:20:37;;;;;;;21.67;12.18;;;31.90;99.90;;;;;;5036684;28;20033;-64
2022/11/10 09:23:09;;;;;;;16.13;8.25;;;31.90;99.90;;;;;;5036570;28;20079;-64
2022/11/10 09:25:36;;;;;;;20.55;10.60;;;31.90;99.90;;;;;;5036551;28;20497;-65
2022/11/10 09:28:04;;;;;;;15.98;10.02;;;31.90;99.90;;;;;;5034314;28;20036;-64
2022/11/10 09:30:31;;;;;;;13.77;7.35;;;31.90;99.90;;;;;;5027314;28;20080;-66
2022/11/10 09:32:59;;;;;;;11.70;7.03;;;31.80;99.90;;;;;;5016898;28;20460;-66
2022/11/10 09:35:27;;;;;;;16.65;6.50;;;31.70;99.90;;;;;;5016188;28;20026;-66
2022/11/10 09:37:54;;;;;;;14.30;7.38;;;31.70;99.90;;;;;;5017795;28;20026;-67
2022/11/10 09:40:27;;;;;;;23.45;7.90;;;31.70;99.90;;;;;;5016798;28;20034;-67
2022/11/10 09:42:56;;;;;;;16.73;9.02;;;31.70;99.90;;;;;;5028581;28;20025;-66
2022/11/10 09:45:29;;;;;;;15.05;9.52;;;31.60;99.90;;;;;;5016254;28;20517;-66
2022/11/10 09:48:15;;;;;;;18.45;8.88;;;31.60;99.90;;;;;;5020073;28;20040;-66
2022/11/10 09:50:53;;;;;;;21.40;10.65;;;31.70;99.90;;;;;;5029638;28;20034;-66
2022/11/10 09:53:24;;;;;;;19.20;10.18;;;31.70;99.90;;;;;;5018664;28;20022;-66
2022/11/10 09:55:55;;;;;;;18.90;9.13;;;31.70;99.90;;;;;;5029646;28;20033;-64
2022/11/10 09:58:26;;;;;;;17.08;8.48;;;31.60;99.90;;;;;;5026655;28;20442;-64
2022/11/10 10:01:07;;;;;;;20.20;10.40;;;31.50;99.90;;;;;;5030767;28;20085;-63
2022/11/10 10:03:36;;;;;;;19.73;12.27;;;31.50;99.90;;;;;;5031970;28;20026;-63
2022/11/10 10:06:09;;;;;;;25.10;14.27;;;31.50;99.90;;;;;;5029430;28;20056;-63
2022/11/10 10:08:36;;;;;;;40.88;22.42;;;31.50;99.90;;;;;;5030608;28;20056;-63
2022/11/10 10:11:24;;;;;;;35.83;19.88;;;31.50;99.90;;;;;;5029122;28;20029;-64
2022/11/10 10:13:58;;;;;;;24.55;15.75;;;31.40;99.90;;;;;;5032326;28;20497;-63
2022/11/10 10:16:25;;;;;;;32.88;18.60;;;31.30;99.90;;;;;;5032768;28;20025;-64
2022/11/10 10:19:12;;;;;;;38.15;18.30;;;31.30;99.90;;;;;;5027626;28;20092;-63
2022/11/10 10:21:46;;;;;;;37.55;16.08;;;31.20;99.90;;;;;;5029877;28;20017;-64
2022/11/10 10:24:15;;;;;;;39.28;18.58;;;31.20;99.90;;;;;;5031136;28;20519;-63
2022/11/10 10:26:59;;;;;;;37.45;18.70;;;31.10;99.90;;;;;;5033944;28;20029;-64
2022/11/10 10:29:34;;;;;;;39.72;20.85;;;31.10;99.90;;;;;;5028471;28;20022;-64
2022/11/10 10:32:01;;;;;;;46.05;23.00;;;31.20;99.90;;;;;;5018198;28;20029;-64
2022/11/10 10:34:30;;;;;;;50.33;25.50;;;31.20;99.90;;;;;;5034978;28;20017;-63
2022/11/10 10:36:57;;;;;;;48.50;25.95;;;31.10;99.90;;;;;;5034410;28;20034;-63
2022/11/10 10:39:35;;;;;;;44.38;24.70;;;31.00;99.90;;;;;;5028968;28;20052;-64
2022/11/10 10:42:03;;;;;;;61.00;28.58;;;31.00;99.90;;;;;;5029400;28;20018;-63
2022/11/10 10:44:30;;;;;;;26.95;12.15;;;30.70;99.90;;;;;;5029987;28;20423;-64
2022/11/10 10:47:01;;;;;;;24.38;9.68;;;30.30;99.90;;;;;;5034045;28;20025;-64
2022/11/10 10:49:32;;;;;;;27.77;10.65;;;29.90;99.90;;;;;;5034885;28;20026;-65
2022/11/10 10:52:23;;;;;;;23.73;9.05;;;29.80;99.90;;;;;;5034905;28;20088;-65
2022/11/10 10:55:00;;;;;;;13.38;7.30;;;29.70;99.90;;;;;;5034695;28;20021;-64
2022/11/10 10:57:28;;;;;;;35.63;15.32;;;29.60;99.90;;;;;;5034941;28;20026;-63
2022/11/10 11:00:20;;;;;;;35.45;15.35;;;29.50;99.90;;;;;;5034749;28;20063;-65
2022/11/10 11:03:26;;;;;;;27.45;12.82;;;29.50;99.90;;;;;;5034732;28;20021;-65
2022/11/10 11:06:06;;;;;;;26.92;10.85;;;29.30;99.90;;;;;;5034327;28;20458;-66
2022/11/10 11:08:32;;;;;;;16.08;8.80;;;29.20;99.90;;;;;;5022118;28;20034;-65
2022/11/10 11:11:08;;;;;;;17.65;9.32;;;29.10;99.90;;;;;;5019194;28;20175;-65
2022/11/10 11:13:35;;;;;;;23.48;11.35;;;29.20;99.90;;;;;;5032863;28;20024;-65
2022/11/10 11:16:07;;;;;;;25.00;10.75;;;29.10;99.90;;;;;;5028239;28;20457;-63
2022/11/10 11:18:38;;;;;;;21.70;9.50;;;29.30;99.90;;;;;;5032830;28;20022;-65
2022/11/10 11:21:07;;;;;;;16.25;8.85;;;29.20;99.90;;;;;;5032516;28;20022;-65
2022/11/10 11:23:45;;;;;;;91.38;61.90;;;29.30;99.90;;;;;;5032634;28;20462;-65
2022/11/10 11:26:23;;;;;;;73.13;51.88;;;29.40;99.90;;;;;;5030887;28;20408;-65
2022/11/10 11:29:08;;;;;;;35.35;17.35;;;29.50;99.90;;;;;;5030498;28;20049;-64
2022/11/10 11:31:45;;;;;;;25.73;9.30;;;29.40;99.90;;;;;;5030199;28;20013;-63
2022/11/10 11:34:24;;;;;;;24.38;8.48;;;29.40;99.90;;;;;;5030421;28;20478;-65
2022/11/10 11:37:06;;;;;;;17.13;7.55;;;29.50;99.90;;;;;;5030409;28;20124;-67
2022/11/10 11:39:56;;;;;;;17.05;10.30;;;29.50;99.90;;;;;;5030465;28;20445;-65
2022/11/10 11:42:31;;;;;;;46.45;26.38;;;29.50;99.90;;;;;;5031066;28;20056;-63
2022/11/10 11:45:00;;;;;;;35.38;22.75;;;29.50;99.90;;;;;;5027392;28;20021;-65
2022/11/10 11:47:27;;;;;;;39.75;23.98;;;29.40;99.90;;;;;;5032054;28;20022;-67
2022/11/10 11:50:34;;;;;;;53.42;24.95;;;29.30;99.90;;;;;;5032408;28;20418;-65
2022/11/10 11:53:29;;;;;;;37.47;18.27;;;29.30;99.90;;;;;;5030171;28;20033;-65
2022/11/10 11:56:09;;;;;;;34.60;21.05;;;29.40;99.90;;;;;;5031225;28;20010;-65
2022/11/10 11:58:45;;;;;;;35.95;21.15;;;29.40;99.90;;;;;;5031996;28;20108;-64
2022/11/10 12:01:22;;;;;;;34.90;20.45;;;29.40;99.90;;;;;;5031832;28;20021;-63
2022/11/10 12:04:19;;;;;;;50.70;31.75;;;29.40;99.90;;;;;;5030609;28;20060;-66
2022/11/10 12:06:51;;;;;;;47.92;23.00;;;29.30;99.90;;;;;;5026874;28;20124;-65
2022/11/10 12:09:35;;;;;;;46.92;25.33;;;29.30;99.90;;;;;;5028011;28;20040;-64
2022/11/10 12:12:32;;;;;;;41.58;25.13;;;29.40;99.90;;;;;;5010335;28;20470;-62
2022/11/10 12:15:04;;;;;;;78.35;39.80;;;29.30;99.90;;;;;;5029430;28;20033;-64
2022/11/10 12:17:36;;;;;;;;;;;29.30;99.90;;;;;;5029720;28;20056;-64
2022/11/10 12:20:41;;;;;;;56.05;30.90;;;29.40;99.90;;;;;;5031423;28;20277;-65
2022/11/10 12:23:28;;;;;;;73.03;38.58;;;29.30;99.90;;;;;;5031236;28;20025;-63
2022/11/10 12:26:12;;;;;;;86.00;47.33;;;29.20;99.90;;;;;;5031670;28;20049;-64
2022/11/10 12:28:45;;;;;;;96.63;56.30;;;29.30;99.90;;;;;;5026857;28;20052;-64
2022/11/10 12:31:21;;;;;;;147.98;80.75;;;29.10;99.90;;;;;;5030437;28;20036;-64
2022/11/10 12:33:55;;;;;;;121.63;71.28;;;29.20;99.90;;;;;;5028334;28;20021;-64
2022/11/10 12:36:23;;;;;;;82.75;45.47;;;29.20;99.90;;;;;;5029523;28;20080;-64
2022/11/10 12:38:52;;;;;;;62.67;31.85;;;29.30;99.90;;;;;;5030167;28;20141;-64
2022/11/10 12:41:20;;;;;;;55.75;29.38;;;29.30;99.90;;;;;;5029907;28;20037;-65
2022/11/10 12:44:03;;;;;;;52.70;31.00;;;29.20;99.90;;;;;;5030940;28;20029;-64
2022/11/10 12:46:30;;;;;;;85.45;46.63;;;29.10;99.90;;;;;;5031213;28;20418;-63
2022/11/10 12:48:59;;;;;;;124.60;67.80;;;29.10;99.90;;;;;;5029549;28;20033;-64
2022/11/10 12:51:38;;;;;;;124.38;67.05;;;29.10;99.90;;;;;;5029498;28;20477;-65
2022/11/10 12:54:09;;;;;;;148.15;76.63;;;29.10;99.90;;;;;;5029857;28;20026;-64
2022/11/10 12:56:39;;;;;;;154.47;77.00;;;29.00;99.90;;;;;;5029614;28;20071;-65
2022/11/10 12:59:31;;;;;;;170.98;82.45;;;29.10;99.90;;;;;;5030323;28;20022;-63
2022/11/10 13:02:02;;;;;;;186.57;95.30;;;29.00;99.90;;;;;;5027001;28;20032;-63
2022/11/10 13:04:30;;;;;;;190.45;90.13;;;29.00;99.90;;;;;;5032550;28;20025;-64